createdAt,value
2023-09-11T00:02:44.606Z,13.30
2023-09-11T00:07:49.245Z,13.22
2023-09-11T00:12:52.418Z,13.15
2023-09-11T00:17:55.958Z,13.08
2023-09-11T00:23:00.561Z,12.97
2023-09-11T00:28:04.257Z,12.93
2023-09-11T00:33:08.035Z,12.92
2023-09-11T00:38:12.634Z,12.95
2023-09-11T00:43:16.016Z,12.89
2023-09-11T00:48:20.309Z,12.88
2023-09-11T00:53:25.084Z,12.80
2023-09-11T00:58:28.663Z,12.77
2023-09-11T01:03:31.906Z,12.72
2023-09-11T01:08:36.856Z,12.67
2023-09-11T01:13:40.207Z,12.61
2023-09-11T01:18:49.146Z,12.60
2023-09-11T01:24:16.338Z,12.56
2023-09-11T01:29:23.064Z,12.60
2023-09-11T01:34:26.454Z,12.53
2023-09-11T01:39:29.865Z,12.55
2023-09-11T01:44:37.326Z,12.51
2023-09-11T01:49:41.120Z,12.50
2023-09-11T01:54:44.516Z,12.42
2023-09-11T01:59:49.433Z,12.43
2023-09-11T02:04:52.704Z,12.33
2023-09-11T02:09:55.957Z,12.27
2023-09-11T02:15:00.580Z,12.23
2023-09-11T02:20:05.155Z,12.22
2023-09-11T02:25:08.929Z,12.18
2023-09-11T02:30:14.023Z,12.14
2023-09-11T02:35:17.388Z,12.06
2023-09-11T02:40:20.623Z,12.01
2023-09-11T02:45:25.327Z,11.99
2023-09-11T02:50:28.872Z,11.91
2023-09-11T02:55:32.092Z,11.95
2023-09-11T03:00:37.505Z,11.91
2023-09-11T03:05:41.052Z,11.88
2023-09-11T03:10:44.564Z,11.85
2023-09-11T03:15:49.392Z,11.78
2023-09-11T03:20:56.064Z,11.74
2023-09-11T03:25:59.775Z,11.70
2023-09-11T03:31:05.487Z,11.68
2023-09-11T03:36:09.253Z,11.62
2023-09-11T03:41:12.915Z,11.44
2023-09-11T03:46:17.868Z,11.54
2023-09-11T03:51:23.462Z,11.47
2023-09-11T03:56:27.250Z,11.45
2023-09-11T04:01:32.340Z,11.39
2023-09-11T04:06:35.695Z,11.37
2023-09-11T04:11:39.083Z,11.35
2023-09-11T04:16:44.088Z,11.34
2023-09-11T04:21:47.430Z,11.31
2023-09-11T04:26:50.693Z,11.25
2023-09-11T04:31:55.285Z,11.23
2023-09-11T04:36:58.558Z,11.21
2023-09-11T04:42:02.011Z,11.26
2023-09-11T04:47:07.631Z,11.20
2023-09-11T04:52:11.574Z,11.20
2023-09-11T04:57:14.905Z,11.17
2023-09-11T05:02:19.593Z,11.17
2023-09-11T05:07:23.603Z,11.24
2023-09-11T05:12:28.565Z,11.26
2023-09-11T05:17:33.381Z,11.32
2023-09-11T05:22:36.666Z,11.36
2023-09-11T05:27:40.169Z,11.43
2023-09-11T05:32:44.817Z,11.57
2023-09-11T05:37:48.128Z,11.62
2023-09-11T05:42:51.320Z,11.75
2023-09-11T05:47:56.105Z,11.88
2023-09-11T05:52:59.398Z,12.00
2023-09-11T05:58:02.670Z,12.09
2023-09-11T06:03:07.764Z,12.24
2023-09-11T06:08:11.739Z,12.36
2023-09-11T06:13:15.163Z,12.48
2023-09-11T06:18:19.841Z,12.64
2023-09-11T06:23:23.071Z,12.87
2023-09-11T06:28:26.456Z,13.69
2023-09-11T06:33:31.197Z,14.84
2023-09-11T06:38:34.522Z,15.39
2023-09-11T06:43:38.334Z,15.78
2023-09-11T06:48:43.291Z,16.43
2023-09-11T06:53:46.759Z,16.75
2023-09-11T06:58:49.962Z,16.90
2023-09-11T07:03:54.963Z,17.53
2023-09-11T07:08:58.553Z,17.93
2023-09-11T07:14:02.438Z,18.33
2023-09-11T07:19:07.317Z,18.92
2023-09-11T07:24:10.680Z,19.08
2023-09-11T07:29:13.931Z,19.50
2023-09-11T07:34:18.579Z,19.99
2023-09-11T07:39:22.034Z,19.98
2023-09-11T07:44:25.203Z,20.42
2023-09-11T07:49:30.018Z,20.73
2023-09-11T07:54:34.041Z,20.98
2023-09-11T07:59:37.442Z,21.69
2023-09-11T08:04:42.235Z,22.18
2023-09-11T08:09:47.504Z,22.51
2023-09-11T08:14:50.935Z,22.81
2023-09-11T08:19:55.509Z,23.31
2023-09-11T08:24:58.864Z,23.86
2023-09-11T08:30:02.286Z,24.03
2023-09-11T08:35:07.710Z,24.50
2023-09-11T08:40:11.747Z,25.12
2023-09-11T08:45:15.134Z,25.44
2023-09-11T08:50:23.256Z,25.72
2023-09-11T08:55:27.664Z,26.25
2023-09-11T09:00:32.771Z,26.69
2023-09-11T09:05:38.149Z,27.02
2023-09-11T09:10:42.147Z,27.32
2023-09-11T09:15:46.319Z,27.20
2023-09-11T09:20:51.237Z,27.68
2023-09-11T09:26:04.923Z,27.99
2023-09-11T09:31:08.298Z,28.06
2023-09-11T09:36:17.543Z,28.26
2023-09-11T09:41:22.691Z,28.43
2023-09-11T09:46:26.178Z,28.82
2023-09-11T09:51:31.857Z,28.85
2023-09-11T09:56:35.191Z,29.25
2023-09-11T10:01:46.173Z,28.78
2023-09-11T10:06:56.259Z,29.18
2023-09-11T10:12:04.643Z,28.55
2023-09-11T10:17:08.505Z,28.88
2023-09-11T10:22:13.240Z,28.84
2023-09-11T10:27:17.882Z,29.00
2023-09-11T10:32:25.702Z,29.04
2023-09-11T10:37:32.596Z,28.98
2023-09-11T10:42:36.168Z,29.38
2023-09-11T10:47:51.588Z,29.17
2023-09-11T10:52:57.643Z,29.42
2023-09-11T10:58:01.509Z,28.92
2023-09-11T11:03:05.807Z,29.29
2023-09-11T11:08:10.933Z,29.54
2023-09-11T11:13:14.134Z,29.70
2023-09-11T11:18:26.536Z,29.38
2023-09-11T11:23:32.989Z,29.29
2023-09-11T11:28:41.859Z,29.44
2023-09-11T11:33:47.468Z,29.40
2023-09-11T11:38:55.346Z,29.91
2023-09-11T11:43:59.246Z,30.23
2023-09-11T11:49:02.411Z,30.17
2023-09-11T11:54:07.400Z,29.48
2023-09-11T11:59:10.801Z,30.06
2023-09-11T12:04:14.196Z,29.81
2023-09-11T12:09:21.544Z,29.51
2023-09-11T12:14:24.933Z,30.01
2023-09-11T12:19:28.299Z,29.92
2023-09-11T12:24:33.224Z,29.93
2023-09-11T12:29:36.717Z,30.08
2023-09-11T12:34:46.397Z,29.63
2023-09-11T12:39:51.418Z,30.30
2023-09-11T12:44:54.644Z,30.52
2023-09-11T12:49:58.122Z,29.96
2023-09-11T12:55:03.716Z,29.82
2023-09-11T13:00:08.465Z,30.28
2023-09-11T13:05:12.149Z,30.16
2023-09-11T13:10:16.951Z,30.15
2023-09-11T13:15:20.484Z,30.08
2023-09-11T13:20:24.035Z,29.65
2023-09-11T13:25:28.651Z,29.89
2023-09-11T13:30:32.219Z,29.90
2023-09-11T13:35:35.602Z,29.79
2023-09-11T13:40:40.364Z,30.13
2023-09-11T13:45:43.646Z,29.87
2023-09-11T13:50:46.998Z,30.04
2023-09-11T13:55:51.648Z,29.98
2023-09-11T14:00:55.142Z,29.90
2023-09-11T14:05:58.734Z,29.95
2023-09-11T14:11:03.904Z,29.75
2023-09-11T14:16:07.530Z,29.69
2023-09-11T14:21:11.003Z,29.75
2023-09-11T14:26:17.148Z,29.82
2023-09-11T14:31:21.669Z,29.82
2023-09-11T14:36:25.405Z,29.50
2023-09-11T14:41:30.230Z,29.44
2023-09-11T14:46:33.935Z,29.38
2023-09-11T14:51:37.459Z,29.37
2023-09-11T14:56:42.493Z,29.19
2023-09-11T15:01:45.931Z,29.37
2023-09-11T15:06:49.261Z,28.97
2023-09-11T15:11:53.989Z,29.04
2023-09-11T15:16:57.550Z,28.68
2023-09-11T15:22:01.011Z,28.71
2023-09-11T15:27:06.132Z,28.93
2023-09-11T15:32:12.698Z,28.36
2023-09-11T15:37:18.919Z,28.21
2023-09-11T15:42:23.837Z,27.69
2023-09-11T15:47:27.327Z,27.73
2023-09-11T15:52:31.130Z,27.34
2023-09-11T15:57:35.941Z,26.81
2023-09-11T16:02:39.328Z,26.60
2023-09-11T16:07:42.834Z,26.09
2023-09-11T16:12:47.492Z,25.49
2023-09-11T16:17:50.825Z,25.24
2023-09-11T16:22:54.581Z,25.18
2023-09-11T16:27:59.872Z,24.66
2023-09-11T16:33:04.878Z,24.29
2023-09-11T16:38:08.578Z,23.94
2023-09-11T16:43:13.284Z,23.60
2023-09-11T16:48:16.773Z,23.18
2023-09-11T16:53:20.374Z,23.15
2023-09-11T16:58:28.158Z,22.90
2023-09-11T17:03:31.599Z,22.80
2023-09-11T17:08:35.065Z,22.67
2023-09-11T17:13:40.151Z,22.34
2023-09-11T17:18:43.770Z,22.13
2023-09-11T17:23:47.398Z,21.84
2023-09-11T17:28:52.359Z,21.45
2023-09-11T17:33:55.597Z,21.07
2023-09-11T17:38:59.115Z,20.95
2023-09-11T17:44:03.967Z,20.73
2023-09-11T17:49:07.251Z,20.50
2023-09-11T17:54:10.790Z,20.35
2023-09-11T17:59:15.604Z,20.02
2023-09-11T18:04:19.293Z,19.86
2023-09-11T18:09:23.466Z,19.67
2023-09-11T18:14:28.145Z,19.68
2023-09-11T18:19:31.370Z,19.35
2023-09-11T18:24:36.063Z,19.36
2023-09-11T18:29:42.422Z,19.28
2023-09-11T18:34:46.412Z,19.08
2023-09-11T18:39:49.782Z,18.71
2023-09-11T18:44:54.892Z,18.74
2023-09-11T18:49:58.203Z,18.57
2023-09-11T18:55:01.744Z,18.27
2023-09-11T19:00:09.481Z,18.29
2023-09-11T19:05:13.044Z,18.03
2023-09-11T19:10:16.340Z,18.04
2023-09-11T19:15:21.485Z,18.07
2023-09-11T19:20:25.167Z,17.99
2023-09-11T19:25:28.623Z,17.99
2023-09-11T19:30:37.194Z,17.90
2023-09-11T19:35:40.679Z,17.91
2023-09-11T19:40:45.475Z,17.79
2023-09-11T19:45:50.179Z,17.64
2023-09-11T19:50:53.498Z,17.29
2023-09-11T19:55:56.985Z,17.13
2023-09-11T20:01:01.920Z,17.12
2023-09-11T20:06:06.773Z,17.12
2023-09-11T20:11:10.350Z,17.14
2023-09-11T20:16:15.304Z,16.97
2023-09-11T20:21:18.538Z,16.71
2023-09-11T20:26:21.929Z,16.76
2023-09-11T20:31:26.729Z,16.78
2023-09-11T20:36:30.973Z,16.76
2023-09-11T20:41:34.388Z,16.70
2023-09-11T20:46:39.165Z,16.36
2023-09-11T20:51:42.592Z,16.42
2023-09-11T20:56:46.371Z,16.37
2023-09-11T21:01:51.331Z,16.15
2023-09-11T21:06:54.588Z,16.27
2023-09-11T21:11:58.196Z,16.28
2023-09-11T21:17:02.920Z,15.91
2023-09-11T21:22:06.627Z,16.03
2023-09-11T21:27:09.900Z,16.04
2023-09-11T21:32:14.583Z,15.80
2023-09-11T21:37:18.189Z,15.85
2023-09-11T21:42:21.694Z,15.85
2023-09-11T21:47:26.484Z,15.65
2023-09-11T21:52:30.752Z,15.76
2023-09-11T21:57:34.186Z,15.57
2023-09-11T22:02:39.238Z,15.38
2023-09-11T22:07:43.881Z,15.46
2023-09-11T22:12:47.269Z,15.45
2023-09-11T22:17:52.025Z,15.46
2023-09-11T22:22:55.447Z,15.43
2023-09-11T22:27:59.026Z,15.33
2023-09-11T22:33:03.810Z,15.36
2023-09-11T22:38:07.328Z,15.27
2023-09-11T22:43:10.726Z,15.31
2023-09-11T22:48:15.611Z,15.28
2023-09-11T22:53:18.974Z,15.03
2023-09-11T22:58:22.340Z,14.95
2023-09-11T23:03:40.314Z,15.14
2023-09-11T23:08:44.156Z,15.15
2023-09-11T23:13:47.669Z,15.04
2023-09-11T23:18:53.383Z,15.12
2023-09-11T23:23:56.666Z,15.16
2023-09-11T23:28:59.980Z,14.75
2023-09-11T23:34:06.300Z,14.93
2023-09-11T23:39:10.445Z,14.73
2023-09-11T23:44:15.470Z,14.82
2023-09-11T23:49:20.196Z,14.83
2023-09-11T23:54:23.565Z,14.83
2023-09-11T23:59:26.948Z,14.75
